createdAt,value
2022-10-29T00:01:07.471Z,15.50
2022-10-29T00:03:36.833Z,15.50
2022-10-29T00:06:11.458Z,15.50
2022-10-29T00:08:41.855Z,15.60
2022-10-29T00:11:21.845Z,15.50
2022-10-29T00:13:58.759Z,15.50
2022-10-29T00:16:37.529Z,15.50
2022-10-29T00:19:07.436Z,15.40
2022-10-29T00:21:35.113Z,15.40
2022-10-29T00:24:02.756Z,15.40
2022-10-29T00:26:30.878Z,15.30
2022-10-29T00:28:58.615Z,15.30
2022-10-29T00:31:26.628Z,15.30
2022-10-29T00:33:56.320Z,15.30
2022-10-29T00:36:30.088Z,15.30
2022-10-29T00:38:58.301Z,15.30
2022-10-29T00:41:30.498Z,15.20
2022-10-29T00:44:35.800Z,15.20
2022-10-29T00:47:25.666Z,15.20
2022-10-29T00:50:15.095Z,15.20
2022-10-29T00:52:51.941Z,15.20
2022-10-29T00:55:21.674Z,15.10
2022-10-29T00:57:55.378Z,15.10
2022-10-29T01:00:23.947Z,15.00
2022-10-29T01:02:51.861Z,15.00
2022-10-29T01:05:26.627Z,15.00
2022-10-29T01:07:54.450Z,15.00
2022-10-29T01:10:43.862Z,15.10
2022-10-29T01:14:25.251Z,15.00
2022-10-29T01:17:34.450Z,14.90
2022-10-29T01:20:22.730Z,14.80
2022-10-29T01:23:51.829Z,14.80
2022-10-29T01:27:50.411Z,14.70
2022-10-29T01:31:06.477Z,14.60
2022-10-29T01:34:10.374Z,14.50
2022-10-29T01:37:10.383Z,14.40
2022-10-29T01:40:30.564Z,14.40
2022-10-29T01:43:29.613Z,14.40
2022-10-29T01:46:36.966Z,14.40
2022-10-29T01:49:24.811Z,14.40
2022-10-29T01:52:01.726Z,14.40
2022-10-29T01:54:29.533Z,14.20
2022-10-29T01:57:01.385Z,14.20
2022-10-29T01:59:51.300Z,14.20
2022-10-29T02:03:22.739Z,14.10
2022-10-29T02:06:42.414Z,14.00
2022-10-29T02:09:28.895Z,13.90
2022-10-29T02:12:26.219Z,13.90
2022-10-29T02:15:13.347Z,13.90
2022-10-29T02:17:41.282Z,13.80
2022-10-29T02:20:14.393Z,13.70
2022-10-29T02:22:42.797Z,13.70
2022-10-29T02:25:11.516Z,13.70
2022-10-29T02:27:39.542Z,13.70
2022-10-29T02:30:08.733Z,13.60
2022-10-29T02:32:36.357Z,13.70
2022-10-29T02:35:05.386Z,13.70
2022-10-29T02:37:33.106Z,13.70
2022-10-29T02:40:00.746Z,13.60
2022-10-29T02:42:29.008Z,13.60
2022-10-29T02:44:56.627Z,13.70
2022-10-29T02:47:24.461Z,13.80
2022-10-29T02:49:52.136Z,13.80
2022-10-29T02:52:19.802Z,13.80
2022-10-29T02:54:47.394Z,13.80
2022-10-29T02:57:15.107Z,13.80
2022-10-29T02:59:43.044Z,13.80
2022-10-29T03:02:10.778Z,13.90
2022-10-29T03:04:39.591Z,14.00
2022-10-29T03:07:07.166Z,14.00
2022-10-29T03:09:34.896Z,13.90
2022-10-29T03:12:02.467Z,13.80
2022-10-29T03:14:30.634Z,13.80
2022-10-29T03:16:58.249Z,13.80
2022-10-29T03:19:25.749Z,13.80
2022-10-29T03:21:53.322Z,13.80
2022-10-29T03:24:20.965Z,13.70
2022-10-29T03:26:48.518Z,13.70
2022-10-29T03:29:16.070Z,13.70
2022-10-29T03:31:43.654Z,13.60
2022-10-29T03:34:11.214Z,13.60
2022-10-29T03:36:38.909Z,13.50
2022-10-29T03:39:07.006Z,13.50
2022-10-29T03:41:34.859Z,13.40
2022-10-29T03:44:02.575Z,13.30
2022-10-29T03:46:30.742Z,13.30
2022-10-29T03:49:01.464Z,13.30
2022-10-29T03:51:29.159Z,13.20
2022-10-29T03:53:56.956Z,13.20
2022-10-29T03:56:24.684Z,13.20
2022-10-29T03:58:52.187Z,13.10
2022-10-29T04:01:19.917Z,13.20
2022-10-29T04:03:47.642Z,13.20
2022-10-29T04:06:16.745Z,13.20
2022-10-29T04:08:45.569Z,13.30
2022-10-29T04:11:14.605Z,13.40
2022-10-29T04:13:42.204Z,13.40
2022-10-29T04:16:09.919Z,13.40
2022-10-29T04:18:37.651Z,13.50
2022-10-29T04:29:31.507Z,13.50
2022-10-29T04:31:59.093Z,13.40
2022-10-29T04:34:26.606Z,13.40
2022-10-29T04:36:54.869Z,13.30
2022-10-29T04:39:23.464Z,13.30
2022-10-29T04:41:51.293Z,13.20
2022-10-29T04:44:20.182Z,13.20
2022-10-29T04:46:48.186Z,13.10
2022-10-29T04:49:16.544Z,13.10
2022-10-29T04:51:44.291Z,13.10
2022-10-29T04:54:12.153Z,13.10
2022-10-29T04:56:39.756Z,13.10
2022-10-29T04:59:07.378Z,13.10
2022-10-29T05:04:08.355Z,13.10
2022-10-29T05:06:36.012Z,13.20
2022-10-29T05:09:04.171Z,13.20
2022-10-29T05:11:31.814Z,13.30
2022-10-29T05:13:59.977Z,13.30
2022-10-29T05:16:27.586Z,13.40
2022-10-29T05:18:55.215Z,13.40
2022-10-29T05:21:22.786Z,13.40
2022-10-29T05:23:50.358Z,13.40
2022-10-29T05:26:17.931Z,13.40
2022-10-29T05:28:45.477Z,13.40
2022-10-29T05:31:13.045Z,13.50
2022-10-29T05:33:40.651Z,13.50
2022-10-29T05:36:08.541Z,13.50
2022-10-29T05:38:36.373Z,13.50
2022-10-29T05:41:04.945Z,13.50
2022-10-29T05:43:32.528Z,13.40
2022-10-29T05:46:04.591Z,13.40
2022-10-29T05:48:32.237Z,13.60
2022-10-29T05:50:59.958Z,13.70
2022-10-29T05:53:27.539Z,13.70
2022-10-29T05:55:55.192Z,13.70
2022-10-29T05:58:22.751Z,13.60
2022-10-29T06:00:50.409Z,13.50
2022-10-29T06:03:23.214Z,13.50
2022-10-29T06:05:51.639Z,13.60
2022-10-29T06:08:19.738Z,13.50
2022-10-29T06:10:47.322Z,13.50
2022-10-29T06:13:20.267Z,13.50
2022-10-29T06:15:50.563Z,13.60
2022-10-29T06:18:18.277Z,13.60
2022-10-29T06:20:45.996Z,13.70
2022-10-29T06:23:13.608Z,13.70
2022-10-29T06:25:41.396Z,13.70
2022-10-29T06:28:15.398Z,13.70
2022-10-29T06:30:50.757Z,13.70
2022-10-29T06:33:19.616Z,13.80
2022-10-29T06:35:48.483Z,13.80
2022-10-29T06:38:17.390Z,13.80
2022-10-29T06:40:56.021Z,13.90
2022-10-29T06:43:23.682Z,13.90
2022-10-29T06:45:51.482Z,13.90
2022-10-29T06:48:22.485Z,14.00
2022-10-29T06:50:52.044Z,14.00
2022-10-29T06:53:21.007Z,14.10
2022-10-29T06:55:49.245Z,14.20
2022-10-29T06:58:21.181Z,14.30
2022-10-29T07:00:49.418Z,14.40
2022-10-29T07:03:21.441Z,14.50
2022-10-29T07:05:57.935Z,14.60
2022-10-29T07:08:26.981Z,14.80
2022-10-29T07:10:55.520Z,14.90
2022-10-29T07:13:23.458Z,15.00
2022-10-29T07:15:52.039Z,15.10
2022-10-29T07:18:19.789Z,15.20
2022-10-29T07:20:47.363Z,15.30
2022-10-29T07:23:15.041Z,15.40
2022-10-29T07:25:43.603Z,15.60
2022-10-29T07:28:21.003Z,15.60
2022-10-29T07:30:52.922Z,15.70
2022-10-29T07:33:20.596Z,15.70
2022-10-29T07:35:48.279Z,15.80
2022-10-29T07:38:15.876Z,15.70
2022-10-29T07:40:51.683Z,15.80
2022-10-29T07:43:21.617Z,15.90
2022-10-29T07:45:52.144Z,16.00
2022-10-29T07:48:22.105Z,16.10
2022-10-29T07:50:50.759Z,16.20
2022-10-29T07:53:18.311Z,16.40
2022-10-29T07:55:56.614Z,16.50
2022-10-29T07:58:25.737Z,16.60
2022-10-29T08:00:54.525Z,16.70
2022-10-29T08:03:22.394Z,16.80
2022-10-29T08:05:56.248Z,16.80
2022-10-29T08:08:26.578Z,16.90
2022-10-29T08:11:01.679Z,16.90
2022-10-29T08:13:30.297Z,17.00
2022-10-29T08:15:58.192Z,17.30
2022-10-29T08:18:26.277Z,17.60
2022-10-29T08:20:55.118Z,17.80
2022-10-29T08:23:23.876Z,18.00
2022-10-29T08:25:51.484Z,18.00
2022-10-29T08:28:19.532Z,18.10
2022-10-29T08:30:51.300Z,18.00
2022-10-29T08:33:20.816Z,18.00
2022-10-29T08:35:48.959Z,18.20
2022-10-29T08:38:16.826Z,18.20
2022-10-29T08:41:23.035Z,18.20
2022-10-29T08:44:20.638Z,18.30
2022-10-29T08:47:21.815Z,18.40
2022-10-29T08:50:45.305Z,18.40
2022-10-29T08:53:31.342Z,18.60
2022-10-29T08:56:06.008Z,19.00
2022-10-29T08:59:07.552Z,19.00
2022-10-29T09:01:37.231Z,19.00
2022-10-29T09:04:36.311Z,18.90
2022-10-29T09:07:57.222Z,18.90
2022-10-29T09:10:57.162Z,18.90
2022-10-29T09:14:36.577Z,18.80
2022-10-29T09:17:26.669Z,19.10
2022-10-29T09:20:42.819Z,19.10
2022-10-29T09:24:03.279Z,19.20
2022-10-29T09:27:28.201Z,19.40
2022-10-29T09:30:20.775Z,19.50
2022-10-29T09:33:20.435Z,19.50
2022-10-29T09:35:56.078Z,19.70
2022-10-29T09:38:48.526Z,19.70
2022-10-29T09:41:18.211Z,19.80
2022-10-29T09:43:50.355Z,19.70
2022-10-29T09:46:40.914Z,19.70
2022-10-29T09:49:51.242Z,19.50
2022-10-29T09:52:29.416Z,19.50
2022-10-29T09:55:05.675Z,19.40
2022-10-29T09:57:37.163Z,19.50
2022-10-29T10:00:34.051Z,19.50
2022-10-29T10:03:41.934Z,19.40
2022-10-29T10:06:15.879Z,19.50
2022-10-29T10:09:05.919Z,19.60
2022-10-29T10:11:49.629Z,19.60
2022-10-29T10:14:27.478Z,19.80
2022-10-29T10:17:01.681Z,20.00
2022-10-29T10:19:33.250Z,20.00
2022-10-29T10:22:06.299Z,20.10
2022-10-29T10:24:38.503Z,20.20
2022-10-29T10:27:31.696Z,20.30
2022-10-29T10:30:05.203Z,20.30
2022-10-29T10:32:33.103Z,20.50
2022-10-29T10:35:01.459Z,20.40
2022-10-29T10:37:33.543Z,20.80
2022-10-29T10:40:08.923Z,20.80
2022-10-29T10:42:47.156Z,20.70
2022-10-29T10:45:40.295Z,20.80
2022-10-29T10:48:15.681Z,21.00
2022-10-29T10:50:43.418Z,21.30
2022-10-29T10:53:34.805Z,21.60
2022-10-29T10:56:03.857Z,21.80
2022-10-29T10:58:49.988Z,21.70
2022-10-29T11:01:46.431Z,21.70
2022-10-29T11:04:39.109Z,21.70
2022-10-29T11:07:16.059Z,21.70
2022-10-29T11:09:55.534Z,21.50
2022-10-29T11:12:50.508Z,21.50
2022-10-29T11:16:02.415Z,21.50
2022-10-29T11:19:05.973Z,21.70
2022-10-29T11:22:13.508Z,21.90
2022-10-29T11:25:17.983Z,22.00
2022-10-29T11:28:23.570Z,21.80
2022-10-29T11:31:32.599Z,21.60
2022-10-29T11:34:35.677Z,21.60
2022-10-29T11:37:47.370Z,21.50
2022-10-29T11:40:41.552Z,21.60
2022-10-29T11:43:14.711Z,21.50
2022-10-29T11:46:38.292Z,21.50
2022-10-29T11:49:33.393Z,21.50
2022-10-29T11:52:20.109Z,21.60
2022-10-29T11:55:41.545Z,21.70
2022-10-29T11:58:53.747Z,21.80
2022-10-29T12:02:16.290Z,21.90
2022-10-29T12:05:50.061Z,21.80
2022-10-29T12:09:23.340Z,21.80
2022-10-29T12:12:41.104Z,21.90
2022-10-29T12:16:15.390Z,21.80
2022-10-29T12:19:25.250Z,21.80
2022-10-29T12:22:52.653Z,21.70
2022-10-29T12:26:11.462Z,21.50
2022-10-29T12:29:03.201Z,21.30
2022-10-29T12:32:16.897Z,21.30
2022-10-29T12:35:22.866Z,21.30
2022-10-29T12:38:18.657Z,21.50
2022-10-29T12:41:02.901Z,21.70
2022-10-29T12:43:38.621Z,21.90
2022-10-29T12:47:05.076Z,22.10
2022-10-29T12:50:16.582Z,22.20
2022-10-29T12:53:19.276Z,22.40
2022-10-29T12:55:49.114Z,22.50
2022-10-29T12:58:57.310Z,22.60
2022-10-29T13:01:50.235Z,22.80
2022-10-29T13:04:34.327Z,22.80
2022-10-29T13:09:49.361Z,22.90
2022-10-29T13:12:55.649Z,22.80
2022-10-29T13:16:07.247Z,22.80
2022-10-29T13:19:49.930Z,22.70
2022-10-29T13:22:17.455Z,22.60
2022-10-29T13:24:45.123Z,22.50
2022-10-29T13:27:21.477Z,22.40
2022-10-29T13:30:14.453Z,22.40
2022-10-29T13:32:42.122Z,22.30
2022-10-29T13:35:18.781Z,22.20
2022-10-29T13:37:46.289Z,22.20
2022-10-29T13:40:23.072Z,22.20
2022-10-29T13:43:18.611Z,22.30
2022-10-29T13:47:07.812Z,22.20
2022-10-29T13:49:46.969Z,22.20
2022-10-29T13:52:24.618Z,22.10
2022-10-29T13:55:08.138Z,22.20
2022-10-29T13:58:35.462Z,22.20
2022-10-29T14:01:21.014Z,22.20
2022-10-29T14:04:39.780Z,22.30
2022-10-29T14:07:30.238Z,22.30
2022-10-29T14:10:17.828Z,22.30
2022-10-29T14:12:51.456Z,22.30
2022-10-29T14:15:19.239Z,22.30
2022-10-29T14:17:46.977Z,22.40
2022-10-29T14:20:29.333Z,22.40
2022-10-29T14:22:57.469Z,22.70
2022-10-29T14:25:36.994Z,22.70
2022-10-29T14:28:32.163Z,22.70
2022-10-29T14:31:26.197Z,22.70
2022-10-29T14:34:01.333Z,22.60
2022-10-29T14:36:47.559Z,22.40
2022-10-29T14:39:57.449Z,22.30
2022-10-29T14:42:43.266Z,22.00
2022-10-29T14:45:32.492Z,21.70
2022-10-29T14:48:10.065Z,21.40
2022-10-29T14:50:38.064Z,21.10
2022-10-29T14:53:31.993Z,20.90
2022-10-29T14:56:10.778Z,20.70
2022-10-29T14:58:41.484Z,20.60
2022-10-29T15:01:20.629Z,20.50
2022-10-29T15:03:57.891Z,20.70
2022-10-29T15:06:30.791Z,20.80
2022-10-29T15:09:07.635Z,20.90
2022-10-29T15:11:48.045Z,21.00
2022-10-29T15:14:38.158Z,21.00
2022-10-29T15:17:29.572Z,21.10
2022-10-29T15:20:07.393Z,21.30
2022-10-29T15:22:41.985Z,21.10
2022-10-29T15:25:40.743Z,21.10
2022-10-29T15:28:25.041Z,20.90
2022-10-29T15:30:54.338Z,21.00
2022-10-29T15:33:29.491Z,21.00
2022-10-29T15:36:05.489Z,20.80
2022-10-29T15:38:34.453Z,20.60
2022-10-29T15:41:20.224Z,20.40
2022-10-29T15:43:58.582Z,20.10
2022-10-29T15:46:48.933Z,19.80
2022-10-29T15:49:17.077Z,19.50
2022-10-29T15:51:44.692Z,19.30
2022-10-29T15:54:14.444Z,19.10
2022-10-29T15:56:42.637Z,19.00
2022-10-29T15:59:25.017Z,18.80
2022-10-29T16:01:53.898Z,18.70
2022-10-29T16:04:21.560Z,18.70
2022-10-29T16:06:49.297Z,18.70
2022-10-29T16:09:21.215Z,18.60
2022-10-29T16:11:50.860Z,18.50
2022-10-29T16:14:18.528Z,18.40
2022-10-29T16:16:46.246Z,18.20
2022-10-29T16:19:13.835Z,18.10
2022-10-29T16:21:42.115Z,18.00
2022-10-29T16:24:15.709Z,17.90
2022-10-29T16:26:43.605Z,17.90
2022-10-29T16:29:11.443Z,17.80
2022-10-29T16:31:39.731Z,17.90
2022-10-29T16:34:18.272Z,17.90
2022-10-29T16:36:48.328Z,18.00
2022-10-29T16:39:15.969Z,18.30
2022-10-29T16:41:43.794Z,18.40
2022-10-29T16:44:11.339Z,18.30
2022-10-29T16:46:40.145Z,18.30
2022-10-29T16:49:07.853Z,18.20
2022-10-29T16:51:35.910Z,18.00
2022-10-29T16:54:03.727Z,18.00
2022-10-29T16:56:31.320Z,17.90
2022-10-29T16:59:01.820Z,17.80
2022-10-29T17:01:30.495Z,17.80
2022-10-29T17:03:58.941Z,17.80
2022-10-29T17:06:26.578Z,17.80
2022-10-29T17:08:54.171Z,17.80
2022-10-29T17:11:21.820Z,17.70
2022-10-29T17:13:49.462Z,17.70
2022-10-29T17:16:19.030Z,17.70
2022-10-29T17:18:50.780Z,17.80
2022-10-29T17:21:18.792Z,17.80
2022-10-29T17:23:46.383Z,17.80
2022-10-29T17:26:14.077Z,17.70
2022-10-29T17:28:41.752Z,17.90
2022-10-29T17:31:11.543Z,18.00
2022-10-29T17:33:39.209Z,18.10
2022-10-29T17:36:15.680Z,18.10
2022-10-29T17:38:43.235Z,18.20
2022-10-29T17:41:11.472Z,18.30
2022-10-29T17:43:40.379Z,18.30
2022-10-29T17:46:09.730Z,18.20
2022-10-29T17:48:38.986Z,18.10
2022-10-29T17:51:06.786Z,18.00
2022-10-29T17:53:34.548Z,17.90
2022-10-29T17:56:04.527Z,17.80
2022-10-29T17:58:32.181Z,17.70
2022-10-29T18:01:10.688Z,17.60
2022-10-29T18:03:45.163Z,17.60
2022-10-29T18:06:15.052Z,17.50
2022-10-29T18:08:44.015Z,17.40
2022-10-29T18:11:21.616Z,17.30
2022-10-29T18:13:51.576Z,17.30
2022-10-29T18:16:25.976Z,17.10
2022-10-29T18:19:02.796Z,17.10
2022-10-29T18:21:33.422Z,17.00
2022-10-29T18:24:05.185Z,17.00
2022-10-29T18:26:37.032Z,16.90
2022-10-29T18:29:12.134Z,16.80
2022-10-29T18:31:45.137Z,16.80
2022-10-29T18:34:17.801Z,16.90
2022-10-29T18:36:47.718Z,16.90
2022-10-29T18:39:17.989Z,16.90
2022-10-29T18:41:46.336Z,16.80
2022-10-29T18:44:13.880Z,16.90
2022-10-29T18:46:42.069Z,17.10
2022-10-29T18:49:13.645Z,17.10
2022-10-29T18:51:42.970Z,17.00
2022-10-29T18:54:14.669Z,17.00
2022-10-29T18:56:42.680Z,16.90
2022-10-29T18:59:14.471Z,16.80
2022-10-29T19:01:42.920Z,16.70
2022-10-29T19:04:16.680Z,16.60
2022-10-29T19:06:44.849Z,16.40
2022-10-29T19:09:13.361Z,16.40
2022-10-29T19:11:55.323Z,16.30
2022-10-29T19:14:26.015Z,16.30
2022-10-29T19:16:53.582Z,16.30
2022-10-29T19:19:23.811Z,16.20
2022-10-29T19:21:51.898Z,16.20
2022-10-29T19:24:20.149Z,16.20
2022-10-29T19:26:48.138Z,16.10
2022-10-29T19:29:16.135Z,16.00
2022-10-29T19:31:46.981Z,15.90
2022-10-29T19:34:14.736Z,15.90
2022-10-29T19:36:42.337Z,15.90
2022-10-29T19:39:09.896Z,15.80
2022-10-29T19:41:37.763Z,15.70
2022-10-29T19:44:06.763Z,15.60
2022-10-29T19:46:36.993Z,15.60
2022-10-29T19:49:05.034Z,15.60
2022-10-29T19:51:32.609Z,15.60
2022-10-29T19:54:04.175Z,15.60
2022-10-29T19:56:31.824Z,15.70
2022-10-29T19:58:59.553Z,15.60
2022-10-29T20:01:27.327Z,15.70
2022-10-29T20:03:54.992Z,15.70
2022-10-29T20:06:22.699Z,15.60
2022-10-29T20:08:50.918Z,15.50
2022-10-29T20:11:18.760Z,15.50
2022-10-29T20:13:46.702Z,15.50
2022-10-29T20:16:20.832Z,15.50
2022-10-29T20:18:50.381Z,15.50
2022-10-29T20:21:19.110Z,15.50
2022-10-29T20:23:46.943Z,15.50
2022-10-29T20:26:14.680Z,15.50
2022-10-29T20:28:42.364Z,15.40
2022-10-29T20:31:19.376Z,15.50
2022-10-29T20:33:54.655Z,15.70
2022-10-29T20:36:25.686Z,15.70
2022-10-29T20:38:55.817Z,15.70
2022-10-29T20:41:25.555Z,15.60
2022-10-29T20:43:59.450Z,15.60
2022-10-29T20:46:28.499Z,15.70
2022-10-29T20:48:56.207Z,15.70
2022-10-29T20:51:25.046Z,15.60
2022-10-29T20:53:54.635Z,15.60
2022-10-29T20:56:27.353Z,15.50
2022-10-29T20:58:55.600Z,15.40
2022-10-29T21:01:25.128Z,15.30
2022-10-29T21:03:52.971Z,15.30
2022-10-29T21:06:21.779Z,15.20
2022-10-29T21:08:52.485Z,15.20
2022-10-29T21:11:22.597Z,15.20
2022-10-29T21:13:51.626Z,15.20
2022-10-29T21:16:29.312Z,15.30
2022-10-29T21:19:04.928Z,15.20
2022-10-29T21:21:32.675Z,15.30
2022-10-29T21:24:00.328Z,15.30
2022-10-29T21:26:29.605Z,15.20
2022-10-29T21:28:58.341Z,15.20
2022-10-29T21:31:26.397Z,15.20
2022-10-29T21:33:57.077Z,15.20
2022-10-29T21:36:24.969Z,15.20
2022-10-29T21:38:52.765Z,15.30
2022-10-29T21:41:20.384Z,15.30
2022-10-29T21:43:48.029Z,15.40
2022-10-29T21:46:15.743Z,15.50
2022-10-29T21:48:43.407Z,15.50
2022-10-29T21:51:15.322Z,15.60
2022-10-29T21:53:43.133Z,15.50
2022-10-29T21:56:15.750Z,15.60
2022-10-29T21:58:44.470Z,15.60
2022-10-29T22:01:17.548Z,15.60
2022-10-29T22:03:48.235Z,15.60
2022-10-29T22:06:27.345Z,15.60
2022-10-29T22:09:00.369Z,15.50
2022-10-29T22:11:29.373Z,15.50
2022-10-29T22:13:56.983Z,15.40
2022-10-29T22:16:24.799Z,15.40
2022-10-29T22:18:53.909Z,15.40
2022-10-29T22:21:25.885Z,15.30
2022-10-29T22:23:57.619Z,15.20
2022-10-29T22:26:30.122Z,15.20
2022-10-29T22:28:57.771Z,15.20
2022-10-29T22:31:25.465Z,15.20
2022-10-29T22:33:53.235Z,15.20
2022-10-29T22:36:27.096Z,15.20
2022-10-29T22:39:01.553Z,15.30
2022-10-29T22:41:30.868Z,15.20
2022-10-29T22:43:59.182Z,15.20
2022-10-29T22:46:30.412Z,15.20
2022-10-29T22:48:58.546Z,15.20
2022-10-29T22:51:30.943Z,15.10
2022-10-29T22:53:58.966Z,15.10
2022-10-29T22:56:36.369Z,15.10
2022-10-29T22:59:06.820Z,15.00
2022-10-29T23:01:42.091Z,15.00
2022-10-29T23:04:13.307Z,14.90
2022-10-29T23:06:40.867Z,14.90
2022-10-29T23:09:08.713Z,14.80
2022-10-29T23:11:39.082Z,14.80
2022-10-29T23:14:07.377Z,14.80
2022-10-29T23:16:37.127Z,14.80
2022-10-29T23:19:07.138Z,14.80
2022-10-29T23:21:35.923Z,14.70
2022-10-29T23:24:03.960Z,14.70
2022-10-29T23:26:31.583Z,14.70
2022-10-29T23:28:59.106Z,14.70
2022-10-29T23:31:29.096Z,14.70
2022-10-29T23:33:58.729Z,14.70
2022-10-29T23:36:28.354Z,14.60
2022-10-29T23:38:59.900Z,14.60
2022-10-29T23:41:31.840Z,14.60
2022-10-29T23:43:59.731Z,14.60
2022-10-29T23:46:27.342Z,14.70
2022-10-29T23:48:55.350Z,14.70
2022-10-29T23:51:23.263Z,14.70
2022-10-29T23:53:54.769Z,14.80
2022-10-29T23:56:25.938Z,14.90
2022-10-29T23:58:53.545Z,15.10
